sensor_id;sensor_type;location;lat;lon;timestamp;P1;durP1;ratioP1;P2;durP2;ratioP2
52982;SDS011;48698;45.736;13.926;2023-09-12T00:01:06;12.55;;;11.25;;
52982;SDS011;48698;45.736;13.926;2023-09-12T00:06:10;12.43;;;11.33;;
52982;SDS011;48698;45.736;13.926;2023-09-12T00:11:13;12.50;;;11.20;;
52982;SDS011;48698;45.736;13.926;2023-09-12T00:16:17;12.87;;;11.67;;
52982;SDS011;48698;45.736;13.926;2023-09-12T00:21:21;11.03;;;9.93;;
52982;SDS011;48698;45.736;13.926;2023-09-12T00:26:24;12.93;;;11.48;;
52982;SDS011;48698;45.736;13.926;2023-09-12T00:31:28;13.60;;;11.85;;
52982;SDS011;48698;45.736;13.926;2023-09-12T00:36:31;13.25;;;11.90;;
52982;SDS011;48698;45.736;13.926;2023-09-12T00:41:36;11.25;;;10.25;;
52982;SDS011;48698;45.736;13.926;2023-09-12T00:46:39;12.55;;;11.35;;
52982;SDS011;48698;45.736;13.926;2023-09-12T00:51:43;12.90;;;11.70;;
52982;SDS011;48698;45.736;13.926;2023-09-12T00:56:48;14.13;;;12.82;;
52982;SDS011;48698;45.736;13.926;2023-09-12T01:01:51;13.73;;;12.52;;
52982;SDS011;48698;45.736;13.926;2023-09-12T01:06:54;13.18;;;11.88;;
52982;SDS011;48698;45.736;13.926;2023-09-12T01:11:59;12.23;;;11.25;;
52982;SDS011;48698;45.736;13.926;2023-09-12T01:17:05;12.40;;;11.15;;
52982;SDS011;48698;45.736;13.926;2023-09-12T01:32:38;14.65;;;12.93;;
52982;SDS011;48698;45.736;13.926;2023-09-12T01:37:47;14.43;;;13.23;;
52982;SDS011;48698;45.736;13.926;2023-09-12T01:42:50;13.85;;;12.55;;
52982;SDS011;48698;45.736;13.926;2023-09-12T01:47:56;14.02;;;12.73;;
52982;SDS011;48698;45.736;13.926;2023-09-12T01:58:04;13.07;;;11.98;;
52982;SDS011;48698;45.736;13.926;2023-09-12T02:03:07;13.90;;;12.70;;
52982;SDS011;48698;45.736;13.926;2023-09-12T02:08:11;13.55;;;12.35;;
52982;SDS011;48698;45.736;13.926;2023-09-12T02:13:14;13.85;;;12.55;;
52982;SDS011;48698;45.736;13.926;2023-09-12T02:18:18;14.32;;;13.02;;
52982;SDS011;48698;45.736;13.926;2023-09-12T02:23:22;13.48;;;12.32;;
52982;SDS011;48698;45.736;13.926;2023-09-12T02:28:25;15.65;;;14.13;;
52982;SDS011;48698;45.736;13.926;2023-09-12T02:33:29;14.73;;;13.43;;
52982;SDS011;48698;45.736;13.926;2023-09-12T02:38:33;14.17;;;12.87;;
52982;SDS011;48698;45.736;13.926;2023-09-12T02:43:36;14.23;;;12.83;;
52982;SDS011;48698;45.736;13.926;2023-09-12T02:48:40;13.90;;;12.48;;
52982;SDS011;48698;45.736;13.926;2023-09-12T02:53:43;12.53;;;11.43;;
52982;SDS011;48698;45.736;13.926;2023-09-12T02:58:47;12.40;;;11.18;;
52982;SDS011;48698;45.736;13.926;2023-09-12T03:03:51;13.83;;;12.60;;
52982;SDS011;48698;45.736;13.926;2023-09-12T03:08:54;15.10;;;13.55;;
52982;SDS011;48698;45.736;13.926;2023-09-12T03:13:58;25.13;;;20.25;;
52982;SDS011;48698;45.736;13.926;2023-09-12T03:19:01;16.58;;;14.57;;
52982;SDS011;48698;45.736;13.926;2023-09-12T03:24:06;14.13;;;12.35;;
52982;SDS011;48698;45.736;13.926;2023-09-12T03:29:09;14.52;;;13.02;;
52982;SDS011;48698;45.736;13.926;2023-09-12T03:34:13;13.82;;;12.43;;
52982;SDS011;48698;45.736;13.926;2023-09-12T03:39:16;14.53;;;13.30;;
52982;SDS011;48698;45.736;13.926;2023-09-12T03:44:20;15.23;;;13.93;;
52982;SDS011;48698;45.736;13.926;2023-09-12T03:49:23;13.63;;;12.45;;
52982;SDS011;48698;45.736;13.926;2023-09-12T03:54:27;14.35;;;13.05;;
52982;SDS011;48698;45.736;13.926;2023-09-12T03:59:30;14.68;;;13.18;;
52982;SDS011;48698;45.736;13.926;2023-09-12T04:04:33;13.57;;;12.38;;
52982;SDS011;48698;45.736;13.926;2023-09-12T04:09:37;13.80;;;12.40;;
52982;SDS011;48698;45.736;13.926;2023-09-12T04:14:41;13.95;;;12.73;;
52982;SDS011;48698;45.736;13.926;2023-09-12T04:19:44;16.92;;;13.10;;
52982;SDS011;48698;45.736;13.926;2023-09-12T04:24:48;13.70;;;12.30;;
52982;SDS011;48698;45.736;13.926;2023-09-12T04:29:51;14.90;;;13.60;;
52982;SDS011;48698;45.736;13.926;2023-09-12T04:34:55;18.15;;;13.70;;
52982;SDS011;48698;45.736;13.926;2023-09-12T04:39:58;15.38;;;13.65;;
52982;SDS011;48698;45.736;13.926;2023-09-12T04:45:01;14.18;;;12.88;;
52982;SDS011;48698;45.736;13.926;2023-09-12T04:50:05;13.10;;;11.85;;
52982;SDS011;48698;45.736;13.926;2023-09-12T04:55:09;14.57;;;13.37;;
52982;SDS011;48698;45.736;13.926;2023-09-12T05:00:13;14.57;;;12.65;;
52982;SDS011;48698;45.736;13.926;2023-09-12T05:05:17;15.17;;;13.80;;
52982;SDS011;48698;45.736;13.926;2023-09-12T05:10:20;13.82;;;12.52;;
52982;SDS011;48698;45.736;13.926;2023-09-12T05:15:23;14.73;;;13.32;;
52982;SDS011;48698;45.736;13.926;2023-09-12T05:20:27;14.32;;;12.93;;
52982;SDS011;48698;45.736;13.926;2023-09-12T05:25:30;13.88;;;12.48;;
52982;SDS011;48698;45.736;13.926;2023-09-12T05:30:34;14.77;;;13.48;;
52982;SDS011;48698;45.736;13.926;2023-09-12T05:35:37;15.40;;;14.10;;
52982;SDS011;48698;45.736;13.926;2023-09-12T05:40:41;16.73;;;13.47;;
52982;SDS011;48698;45.736;13.926;2023-09-12T05:45:45;14.35;;;12.93;;
52982;SDS011;48698;45.736;13.926;2023-09-12T05:50:48;18.10;;;14.77;;
52982;SDS011;48698;45.736;13.926;2023-09-12T05:55:52;15.82;;;14.18;;
52982;SDS011;48698;45.736;13.926;2023-09-12T06:00:55;18.33;;;13.48;;
52982;SDS011;48698;45.736;13.926;2023-09-12T06:05:58;14.80;;;13.38;;
52982;SDS011;48698;45.736;13.926;2023-09-12T06:11:02;15.88;;;13.50;;
52982;SDS011;48698;45.736;13.926;2023-09-12T06:16:06;15.20;;;13.80;;
52982;SDS011;48698;45.736;13.926;2023-09-12T06:21:10;16.63;;;12.43;;
52982;SDS011;48698;45.736;13.926;2023-09-12T06:26:13;12.25;;;11.10;;
52982;SDS011;48698;45.736;13.926;2023-09-12T06:31:17;13.20;;;10.77;;
52982;SDS011;48698;45.736;13.926;2023-09-12T06:36:20;12.37;;;11.27;;
52982;SDS011;48698;45.736;13.926;2023-09-12T06:41:24;11.38;;;10.38;;
52982;SDS011;48698;45.736;13.926;2023-09-12T06:51:32;11.48;;;10.20;;
52982;SDS011;48698;45.736;13.926;2023-09-12T06:56:39;12.05;;;10.52;;
52982;SDS011;48698;45.736;13.926;2023-09-12T07:01:44;11.50;;;10.30;;
52982;SDS011;48698;45.736;13.926;2023-09-12T07:06:48;9.80;;;8.87;;
52982;SDS011;48698;45.736;13.926;2023-09-12T07:11:52;10.00;;;8.98;;
52982;SDS011;48698;45.736;13.926;2023-09-12T07:16:56;11.88;;;8.43;;
52982;SDS011;48698;45.736;13.926;2023-09-12T07:21:59;9.30;;;8.20;;
52982;SDS011;48698;45.736;13.926;2023-09-12T07:27:03;9.03;;;8.13;;
52982;SDS011;48698;45.736;13.926;2023-09-12T07:32:06;9.68;;;7.63;;
52982;SDS011;48698;45.736;13.926;2023-09-12T07:37:10;9.02;;;7.15;;
52982;SDS011;48698;45.736;13.926;2023-09-12T07:42:13;7.40;;;6.70;;
52982;SDS011;48698;45.736;13.926;2023-09-12T07:47:17;8.50;;;6.57;;
52982;SDS011;48698;45.736;13.926;2023-09-12T07:52:22;8.50;;;6.57;;
52982;SDS011;48698;45.736;13.926;2023-09-12T07:57:25;6.65;;;6.05;;
52982;SDS011;48698;45.736;13.926;2023-09-12T08:02:31;7.32;;;6.20;;
52982;SDS011;48698;45.736;13.926;2023-09-12T08:07:35;9.25;;;6.70;;
52982;SDS011;48698;45.736;13.926;2023-09-12T08:12:39;7.05;;;6.05;;
52982;SDS011;48698;45.736;13.926;2023-09-12T08:17:45;11.85;;;6.43;;
52982;SDS011;48698;45.736;13.926;2023-09-12T08:22:48;8.70;;;6.07;;
52982;SDS011;48698;45.736;13.926;2023-09-12T08:27:52;8.50;;;6.07;;
52982;SDS011;48698;45.736;13.926;2023-09-12T08:32:55;8.77;;;6.50;;
52982;SDS011;48698;45.736;13.926;2023-09-12T08:37:59;11.10;;;6.25;;
52982;SDS011;48698;45.736;13.926;2023-09-12T08:43:03;11.32;;;6.28;;
52982;SDS011;48698;45.736;13.926;2023-09-12T08:52:51;7.07;;;5.45;;
52982;SDS011;48698;45.736;13.926;2023-09-12T10:17:58;7.63;;;5.38;;
52982;SDS011;48698;45.736;13.926;2023-09-12T10:28:17;8.82;;;5.35;;
52982;SDS011;48698;45.736;13.926;2023-09-12T10:38:09;8.50;;;5.50;;
52982;SDS011;48698;45.736;13.926;2023-09-12T10:43:17;8.80;;;5.68;;
52982;SDS011;48698;45.736;13.926;2023-09-12T10:53:26;11.80;;;5.75;;
52982;SDS011;48698;45.736;13.926;2023-09-12T10:58:33;10.20;;;6.28;;
52982;SDS011;48698;45.736;13.926;2023-09-12T11:09:23;11.27;;;6.05;;
52982;SDS011;48698;45.736;13.926;2023-09-12T11:14:27;10.15;;;6.18;;
52982;SDS011;48698;45.736;13.926;2023-09-12T11:19:30;9.57;;;6.45;;
52982;SDS011;48698;45.736;13.926;2023-09-12T11:29:35;9.20;;;5.70;;
52982;SDS011;48698;45.736;13.926;2023-09-12T11:34:41;8.52;;;5.70;;
52982;SDS011;48698;45.736;13.926;2023-09-12T11:39:46;8.07;;;5.70;;
52982;SDS011;48698;45.736;13.926;2023-09-12T11:44:49;8.85;;;5.50;;
52982;SDS011;48698;45.736;13.926;2023-09-12T11:49:54;8.73;;;6.00;;
52982;SDS011;48698;45.736;13.926;2023-09-12T11:54:57;8.35;;;6.30;;
52982;SDS011;48698;45.736;13.926;2023-09-12T12:00:02;10.77;;;6.30;;
52982;SDS011;48698;45.736;13.926;2023-09-12T12:05:12;14.73;;;5.53;;
52982;SDS011;48698;45.736;13.926;2023-09-12T12:10:17;7.57;;;5.75;;
52982;SDS011;48698;45.736;13.926;2023-09-12T12:15:22;8.38;;;6.28;;
52982;SDS011;48698;45.736;13.926;2023-09-12T12:20:25;7.32;;;5.50;;
52982;SDS011;48698;45.736;13.926;2023-09-12T12:25:32;9.52;;;5.70;;
52982;SDS011;48698;45.736;13.926;2023-09-12T12:30:37;8.93;;;5.63;;
52982;SDS011;48698;45.736;13.926;2023-09-12T12:35:41;9.95;;;5.85;;
52982;SDS011;48698;45.736;13.926;2023-09-12T12:41:02;6.32;;;5.50;;
52982;SDS011;48698;45.736;13.926;2023-09-12T12:46:09;10.60;;;5.75;;
52982;SDS011;48698;45.736;13.926;2023-09-12T12:51:15;7.13;;;5.82;;
52982;SDS011;48698;45.736;13.926;2023-09-12T12:56:29;8.07;;;5.53;;
52982;SDS011;48698;45.736;13.926;2023-09-12T13:01:34;14.07;;;6.00;;
52982;SDS011;48698;45.736;13.926;2023-09-12T13:06:38;9.68;;;6.32;;
52982;SDS011;48698;45.736;13.926;2023-09-12T13:11:43;9.60;;;6.32;;
52982;SDS011;48698;45.736;13.926;2023-09-12T13:16:46;12.70;;;5.85;;
52982;SDS011;48698;45.736;13.926;2023-09-12T13:21:50;7.60;;;6.20;;
52982;SDS011;48698;45.736;13.926;2023-09-12T13:26:56;9.65;;;6.35;;
52982;SDS011;48698;45.736;13.926;2023-09-12T13:31:59;11.63;;;6.00;;
52982;SDS011;48698;45.736;13.926;2023-09-12T13:37:03;11.75;;;6.10;;
52982;SDS011;48698;45.736;13.926;2023-09-12T13:42:14;8.30;;;5.40;;
52982;SDS011;48698;45.736;13.926;2023-09-12T13:47:21;9.93;;;6.63;;
52982;SDS011;48698;45.736;13.926;2023-09-12T13:52:26;12.00;;;6.32;;
52982;SDS011;48698;45.736;13.926;2023-09-12T13:57:30;12.85;;;6.63;;
52982;SDS011;48698;45.736;13.926;2023-09-12T14:02:41;9.48;;;6.13;;
52982;SDS011;48698;45.736;13.926;2023-09-12T14:07:45;9.50;;;6.18;;
52982;SDS011;48698;45.736;13.926;2023-09-12T14:12:49;9.55;;;6.57;;
52982;SDS011;48698;45.736;13.926;2023-09-12T14:17:54;8.13;;;6.35;;
52982;SDS011;48698;45.736;13.926;2023-09-12T14:22:59;9.18;;;6.15;;
52982;SDS011;48698;45.736;13.926;2023-09-12T14:28:03;13.00;;;6.80;;
52982;SDS011;48698;45.736;13.926;2023-09-12T14:33:08;10.32;;;6.25;;
52982;SDS011;48698;45.736;13.926;2023-09-12T14:38:11;10.55;;;6.00;;
52982;SDS011;48698;45.736;13.926;2023-09-12T14:43:15;10.20;;;6.47;;
52982;SDS011;48698;45.736;13.926;2023-09-12T14:48:18;7.93;;;5.80;;
52982;SDS011;48698;45.736;13.926;2023-09-12T14:53:22;8.98;;;5.43;;
52982;SDS011;48698;45.736;13.926;2023-09-12T14:58:26;9.23;;;5.75;;
52982;SDS011;48698;45.736;13.926;2023-09-12T15:03:31;9.65;;;5.55;;
52982;SDS011;48698;45.736;13.926;2023-09-12T15:08:39;11.57;;;5.90;;
52982;SDS011;48698;45.736;13.926;2023-09-12T15:13:44;8.15;;;5.60;;
52982;SDS011;48698;45.736;13.926;2023-09-12T15:18:50;9.38;;;5.80;;
52982;SDS011;48698;45.736;13.926;2023-09-12T15:23:55;10.60;;;5.78;;
52982;SDS011;48698;45.736;13.926;2023-09-12T15:28:59;10.73;;;5.70;;
52982;SDS011;48698;45.736;13.926;2023-09-12T15:34:06;12.40;;;5.88;;
52982;SDS011;48698;45.736;13.926;2023-09-12T15:39:10;8.57;;;5.55;;
52982;SDS011;48698;45.736;13.926;2023-09-12T15:44:14;12.50;;;5.80;;
52982;SDS011;48698;45.736;13.926;2023-09-12T15:49:18;9.00;;;5.30;;
52982;SDS011;48698;45.736;13.926;2023-09-12T15:54:21;9.88;;;6.25;;
52982;SDS011;48698;45.736;13.926;2023-09-12T15:59:25;10.95;;;5.95;;
52982;SDS011;48698;45.736;13.926;2023-09-12T16:04:28;12.45;;;5.45;;
52982;SDS011;48698;45.736;13.926;2023-09-12T16:09:32;10.65;;;6.03;;
52982;SDS011;48698;45.736;13.926;2023-09-12T16:19:39;6.20;;;5.25;;
52982;SDS011;48698;45.736;13.926;2023-09-12T16:24:43;9.90;;;5.53;;
52982;SDS011;48698;45.736;13.926;2023-09-12T16:34:50;11.80;;;5.30;;
52982;SDS011;48698;45.736;13.926;2023-09-12T16:39:54;8.40;;;5.00;;
52982;SDS011;48698;45.736;13.926;2023-09-12T16:44:57;7.30;;;5.53;;
52982;SDS011;48698;45.736;13.926;2023-09-12T16:50:02;48.00;;;8.65;;
52982;SDS011;48698;45.736;13.926;2023-09-12T16:55:07;25.88;;;6.78;;
52982;SDS011;48698;45.736;13.926;2023-09-12T17:00:10;77.97;;;9.35;;
52982;SDS011;48698;45.736;13.926;2023-09-12T17:05:15;13.13;;;6.60;;
52982;SDS011;48698;45.736;13.926;2023-09-12T17:10:18;12.35;;;7.50;;
52982;SDS011;48698;45.736;13.926;2023-09-12T17:15:23;10.27;;;7.18;;
52982;SDS011;48698;45.736;13.926;2023-09-12T17:20:28;18.20;;;8.35;;
52982;SDS011;48698;45.736;13.926;2023-09-12T17:30:36;10.15;;;8.30;;
52982;SDS011;48698;45.736;13.926;2023-09-12T17:35:39;11.40;;;8.90;;
52982;SDS011;48698;45.736;13.926;2023-09-12T17:40:43;12.25;;;8.23;;
52982;SDS011;48698;45.736;13.926;2023-09-12T17:45:51;12.20;;;8.98;;
52982;SDS011;48698;45.736;13.926;2023-09-12T17:51:11;10.00;;;9.00;;
52982;SDS011;48698;45.736;13.926;2023-09-12T17:56:15;14.25;;;9.88;;
52982;SDS011;48698;45.736;13.926;2023-09-12T18:01:21;172.82;;;18.75;;
52982;SDS011;48698;45.736;13.926;2023-09-12T18:06:25;23.98;;;10.57;;
52982;SDS011;48698;45.736;13.926;2023-09-12T18:11:30;11.07;;;9.98;;
52982;SDS011;48698;45.736;13.926;2023-09-12T18:21:38;11.65;;;10.20;;
52982;SDS011;48698;45.736;13.926;2023-09-12T18:26:43;12.07;;;9.60;;
52982;SDS011;48698;45.736;13.926;2023-09-12T18:41:39;12.90;;;10.00;;
52982;SDS011;48698;45.736;13.926;2023-09-12T18:46:43;11.02;;;10.02;;
52982;SDS011;48698;45.736;13.926;2023-09-12T18:51:47;10.85;;;9.85;;
52982;SDS011;48698;45.736;13.926;2023-09-12T18:56:51;12.17;;;10.37;;
52982;SDS011;48698;45.736;13.926;2023-09-12T19:01:54;12.20;;;10.97;;
52982;SDS011;48698;45.736;13.926;2023-09-12T19:06:58;12.75;;;11.00;;
52982;SDS011;48698;45.736;13.926;2023-09-12T19:12:03;11.23;;;10.23;;
52982;SDS011;48698;45.736;13.926;2023-09-12T19:17:07;14.70;;;13.38;;
52982;SDS011;48698;45.736;13.926;2023-09-12T19:22:10;14.68;;;13.30;;
52982;SDS011;48698;45.736;13.926;2023-09-12T19:27:14;15.38;;;12.82;;
52982;SDS011;48698;45.736;13.926;2023-09-12T19:32:18;13.13;;;11.83;;
52982;SDS011;48698;45.736;13.926;2023-09-12T19:37:22;12.52;;;11.32;;
52982;SDS011;48698;45.736;13.926;2023-09-12T19:42:25;15.30;;;13.43;;
52982;SDS011;48698;45.736;13.926;2023-09-12T19:47:28;13.03;;;11.90;;
52982;SDS011;48698;45.736;13.926;2023-09-12T19:52:34;13.30;;;11.95;;
52982;SDS011;48698;45.736;13.926;2023-09-12T19:57:37;13.70;;;12.40;;
52982;SDS011;48698;45.736;13.926;2023-09-12T20:02:43;13.32;;;12.02;;
52982;SDS011;48698;45.736;13.926;2023-09-12T20:07:47;12.32;;;11.02;;
52982;SDS011;48698;45.736;13.926;2023-09-12T20:12:53;13.80;;;12.55;;
52982;SDS011;48698;45.736;13.926;2023-09-12T20:18:08;13.57;;;12.45;;
52982;SDS011;48698;45.736;13.926;2023-09-12T20:23:13;13.57;;;12.18;;
52982;SDS011;48698;45.736;13.926;2023-09-12T20:28:17;14.00;;;12.68;;
52982;SDS011;48698;45.736;13.926;2023-09-12T20:33:20;13.10;;;11.90;;
52982;SDS011;48698;45.736;13.926;2023-09-12T20:38:31;13.65;;;12.43;;
52982;SDS011;48698;45.736;13.926;2023-09-12T20:43:34;14.27;;;12.87;;
52982;SDS011;48698;45.736;13.926;2023-09-12T20:48:38;13.07;;;11.80;;
52982;SDS011;48698;45.736;13.926;2023-09-12T20:53:41;13.75;;;12.45;;
52982;SDS011;48698;45.736;13.926;2023-09-12T20:58:45;14.88;;;13.38;;
52982;SDS011;48698;45.736;13.926;2023-09-12T21:03:50;15.05;;;13.52;;
52982;SDS011;48698;45.736;13.926;2023-09-12T21:08:54;13.77;;;12.47;;
52982;SDS011;48698;45.736;13.926;2023-09-12T21:19:01;17.75;;;13.20;;
52982;SDS011;48698;45.736;13.926;2023-09-12T21:24:06;15.15;;;13.85;;
52982;SDS011;48698;45.736;13.926;2023-09-12T21:29:10;14.90;;;13.50;;
52982;SDS011;48698;45.736;13.926;2023-09-12T21:34:13;15.50;;;13.93;;
52982;SDS011;48698;45.736;13.926;2023-09-12T21:39:17;15.97;;;14.50;;
52982;SDS011;48698;45.736;13.926;2023-09-12T21:44:21;15.90;;;14.43;;
52982;SDS011;48698;45.736;13.926;2023-09-12T21:49:25;14.98;;;13.55;;
52982;SDS011;48698;45.736;13.926;2023-09-12T21:54:28;15.67;;;14.13;;
52982;SDS011;48698;45.736;13.926;2023-09-12T21:59:32;15.02;;;13.07;;
52982;SDS011;48698;45.736;13.926;2023-09-12T22:04:35;14.20;;;12.93;;
52982;SDS011;48698;45.736;13.926;2023-09-12T22:09:39;15.20;;;13.73;;
52982;SDS011;48698;45.736;13.926;2023-09-12T22:14:42;14.40;;;13.20;;
52982;SDS011;48698;45.736;13.926;2023-09-12T22:19:46;15.25;;;13.82;;
52982;SDS011;48698;45.736;13.926;2023-09-12T22:24:53;15.43;;;13.83;;
52982;SDS011;48698;45.736;13.926;2023-09-12T22:29:58;16.48;;;13.82;;
52982;SDS011;48698;45.736;13.926;2023-09-12T22:35:01;15.20;;;13.90;;
52982;SDS011;48698;45.736;13.926;2023-09-12T22:40:06;15.60;;;14.30;;
52982;SDS011;48698;45.736;13.926;2023-09-12T22:45:12;16.35;;;15.05;;
52982;SDS011;48698;45.736;13.926;2023-09-12T22:50:16;15.70;;;14.38;;
52982;SDS011;48698;45.736;13.926;2023-09-12T22:55:19;17.20;;;15.70;;
52982;SDS011;48698;45.736;13.926;2023-09-12T23:00:23;17.30;;;15.60;;
52982;SDS011;48698;45.736;13.926;2023-09-12T23:05:29;15.13;;;13.93;;
52982;SDS011;48698;45.736;13.926;2023-09-12T23:10:33;15.37;;;13.87;;
52982;SDS011;48698;45.736;13.926;2023-09-12T23:15:37;16.70;;;15.15;;
52982;SDS011;48698;45.736;13.926;2023-09-12T23:20:40;16.53;;;15.00;;
52982;SDS011;48698;45.736;13.926;2023-09-12T23:25:44;15.50;;;14.20;;
52982;SDS011;48698;45.736;13.926;2023-09-12T23:30:47;16.10;;;14.52;;
52982;SDS011;48698;45.736;13.926;2023-09-12T23:35:51;16.07;;;14.57;;
52982;SDS011;48698;45.736;13.926;2023-09-12T23:41:12;16.75;;;15.25;;
52982;SDS011;48698;45.736;13.926;2023-09-12T23:46:15;16.37;;;15.07;;
52982;SDS011;48698;45.736;13.926;2023-09-12T23:51:20;16.23;;;14.82;;
52982;SDS011;48698;45.736;13.926;2023-09-12T23:56:24;16.98;;;15.57;;
